07:39
Airports
History
Links
Donate
Help keep this website running!
PayPal
Bitcoin
This page is community maintained. The information is intended for PC simulator navigation or reference.
Always use approved charts for navigation.
90PN
Baneys
Baneys (90PN)
Dover, Pennsylvania, United States (17315)
4
Lat/Lng:40° 1' 2.35" N / 76° 49' 10.89" W
40.017319 / -76.819692
Elevation:470'ft / 143mMSL
ID / ICAO:90PN
Runways:1
Longest:05-23
Grass 612m / 2,006ft
Nearby Weather06:53 GMT 2018-02-25
Nearby weather at KTHV, York located 7.5 nautical miles from 90PN
Altimeter: 30.07
Visibility: 4.0 statute miles
Wind: 4 knots (from 080°)
Temp: 7°c / 45°f
Humidity: 100.0%

METAR: KTHV 250653Z AUTO 08004KT 4SM -RA BR BKN010 OVC015 07/07 A3007 RMK AO2 CIG 008V013 SLP187 P0012 T00720072

(Powered by phpweather)
Nearby VORs <50NM
Nearby NDBs
Runway 05 / 23
Dimensions:611.5 x 30.5m 2006' x 100'ft
Surface:Grass
Runway 05 [A]Runway 23 [B]
Heading:039°TH 219°TH
Lat:
Lng:
40° 0' 54.78"N
76° 49' 19.18"W
40° 1' 9.91"N
76° 49' 2.6"W
User Notes and Comments
40° 1' 2.35" N / 76° 49' 10.89" W
Distance To
Airport ID:
Nearby Airports
4 Lazy B Ranch 0.4 NM
PS08 NNE 23°
(R) Level Acres Farm 6.4 NM
PA84 SW 227°
(R) Gilbert 6.6 NM
73PA SSE 156°
(U) York 7.5 NM
KTHV ( WX ) SSW 202°
4 Hostetter 7.7 NM
54PA SSW 213°
4 Kampel 8.6 NM
2N5 WNW 284°
(R) Circle W Airfield 9.0 NM
PA72 WSW 243°
VFR Chart
Flight Planning at SkyVector.com